Alarka, North Carolina
Current Conditions -  °F | °C
As of 6:55 PM on Wednesday 26 Nov 2014 (Local Time) from KGKT Reporting Station
Scattered Clouds Scattered Clouds  
Wind Chill: 46°   Ceiling: Unl
Heat Index: 46°   Visibility: 10mi
Dew Point: 23°   Wind: 3mph
Humidity: 40%   Direction: 220°SW
Pressure: 30.03"   Gusts: NA
Location:  35.5051°N, 83.603°W
Report Text: KGKT 262355Z AUTO 22003KT 10SM SCT085 08/M05 A3003 RMK
Loading
Personal Weather Stations






























Interactive Weather Map New forecast layout! Learn more

10-Day Weather Forecast

Advertisements
Track Severe Weather on mobile